sensor_id;sensor_type;location;lat;lon;timestamp;temperature;humidity
36990;DHT22;22898;52.102;5.776;2023-06-26T00:00:04;31.00;73.90
36990;DHT22;22898;52.102;5.776;2023-06-26T00:02:30;31.00;74.10
36990;DHT22;22898;52.102;5.776;2023-06-26T00:04:58;30.90;74.10
36990;DHT22;22898;52.102;5.776;2023-06-26T00:07:24;31.00;74.10
36990;DHT22;22898;52.102;5.776;2023-06-26T00:09:49;31.00;74.30
36990;DHT22;22898;52.102;5.776;2023-06-26T00:12:15;31.00;74.00
36990;DHT22;22898;52.102;5.776;2023-06-26T00:14:40;31.10;74.00
36990;DHT22;22898;52.102;5.776;2023-06-26T00:17:06;30.90;74.50
36990;DHT22;22898;52.102;5.776;2023-06-26T00:19:31;30.80;74.80
36990;DHT22;22898;52.102;5.776;2023-06-26T00:21:58;30.80;75.10
36990;DHT22;22898;52.102;5.776;2023-06-26T00:24:24;30.80;74.80
36990;DHT22;22898;52.102;5.776;2023-06-26T00:26:49;30.80;74.80
36990;DHT22;22898;52.102;5.776;2023-06-26T00:29:15;30.70;75.00
36990;DHT22;22898;52.102;5.776;2023-06-26T00:31:41;30.60;75.10
36990;DHT22;22898;52.102;5.776;2023-06-26T00:34:07;30.60;75.40
36990;DHT22;22898;52.102;5.776;2023-06-26T00:36:32;30.60;75.60
36990;DHT22;22898;52.102;5.776;2023-06-26T00:38:59;30.60;75.70
36990;DHT22;22898;52.102;5.776;2023-06-26T00:41:25;30.60;75.60
36990;DHT22;22898;52.102;5.776;2023-06-26T00:43:50;30.70;75.40
36990;DHT22;22898;52.102;5.776;2023-06-26T00:46:17;30.70;75.40
36990;DHT22;22898;52.102;5.776;2023-06-26T00:48:43;30.70;75.40
36990;DHT22;22898;52.102;5.776;2023-06-26T00:51:09;30.50;75.50
36990;DHT22;22898;52.102;5.776;2023-06-26T00:53:35;30.50;76.10
36990;DHT22;22898;52.102;5.776;2023-06-26T00:56:02;30.40;76.00
36990;DHT22;22898;52.102;5.776;2023-06-26T00:58:28;30.40;76.20
36990;DHT22;22898;52.102;5.776;2023-06-26T01:00:54;30.50;76.10
36990;DHT22;22898;52.102;5.776;2023-06-26T01:03:21;30.50;75.90
36990;DHT22;22898;52.102;5.776;2023-06-26T01:05:48;30.50;75.90
36990;DHT22;22898;52.102;5.776;2023-06-26T01:08:15;30.50;75.70
36990;DHT22;22898;52.102;5.776;2023-06-26T01:10:42;30.40;75.90
36990;DHT22;22898;52.102;5.776;2023-06-26T01:13:08;30.30;76.20
36990;DHT22;22898;52.102;5.776;2023-06-26T01:15:34;30.40;76.30
36990;DHT22;22898;52.102;5.776;2023-06-26T01:18:00;30.50;76.00
36990;DHT22;22898;52.102;5.776;2023-06-26T01:20:32;30.50;75.70
36990;DHT22;22898;52.102;5.776;2023-06-26T01:28:35;30.60;76.20
36990;DHT22;22898;52.102;5.776;2023-06-26T01:31:04;30.60;76.10
36990;DHT22;22898;52.102;5.776;2023-06-26T01:33:31;30.60;75.90
36990;DHT22;22898;52.102;5.776;2023-06-26T01:35:57;30.60;76.30
36990;DHT22;22898;52.102;5.776;2023-06-26T01:38:23;30.50;76.10
36990;DHT22;22898;52.102;5.776;2023-06-26T01:40:49;30.50;76.00
36990;DHT22;22898;52.102;5.776;2023-06-26T01:43:23;30.50;76.20
36990;DHT22;22898;52.102;5.776;2023-06-26T01:45:51;30.50;76.20
36990;DHT22;22898;52.102;5.776;2023-06-26T01:48:22;30.20;76.90
36990;DHT22;22898;52.102;5.776;2023-06-26T01:50:51;29.90;77.00
36990;DHT22;22898;52.102;5.776;2023-06-26T01:53:21;29.10;79.40
36990;DHT22;22898;52.102;5.776;2023-06-26T01:55:58;28.90;79.90
36990;DHT22;22898;52.102;5.776;2023-06-26T01:58:26;28.40;81.40
36990;DHT22;22898;52.102;5.776;2023-06-26T02:00:53;27.70;83.30
36990;DHT22;22898;52.102;5.776;2023-06-26T02:03:19;27.30;84.40
36990;DHT22;22898;52.102;5.776;2023-06-26T02:05:45;27.60;83.50
36990;DHT22;22898;52.102;5.776;2023-06-26T02:08:14;27.10;85.60
36990;DHT22;22898;52.102;5.776;2023-06-26T02:10:40;27.10;85.70
36990;DHT22;22898;52.102;5.776;2023-06-26T02:13:06;27.30;85.10
36990;DHT22;22898;52.102;5.776;2023-06-26T02:15:31;27.20;85.40
36990;DHT22;22898;52.102;5.776;2023-06-26T02:17:57;27.10;86.00
36990;DHT22;22898;52.102;5.776;2023-06-26T02:20:23;27.20;86.00
36990;DHT22;22898;52.102;5.776;2023-06-26T02:22:48;27.20;86.00
36990;DHT22;22898;52.102;5.776;2023-06-26T02:25:14;27.40;85.30
36990;DHT22;22898;52.102;5.776;2023-06-26T02:27:40;27.90;83.90
36990;DHT22;22898;52.102;5.776;2023-06-26T02:30:06;27.90;83.90
36990;DHT22;22898;52.102;5.776;2023-06-26T02:32:31;27.40;85.20
36990;DHT22;22898;52.102;5.776;2023-06-26T02:34:57;27.50;84.90
36990;DHT22;22898;52.102;5.776;2023-06-26T02:37:22;27.50;85.10
36990;DHT22;22898;52.102;5.776;2023-06-26T02:39:48;27.80;84.10
36990;DHT22;22898;52.102;5.776;2023-06-26T02:42:14;27.50;85.30
36990;DHT22;22898;52.102;5.776;2023-06-26T02:44:39;27.70;84.40
36990;DHT22;22898;52.102;5.776;2023-06-26T02:47:05;27.60;85.20
36990;DHT22;22898;52.102;5.776;2023-06-26T02:49:31;27.70;84.70
36990;DHT22;22898;52.102;5.776;2023-06-26T02:51:56;27.50;85.40
36990;DHT22;22898;52.102;5.776;2023-06-26T02:54:22;27.40;85.60
36990;DHT22;22898;52.102;5.776;2023-06-26T02:56:47;27.00;86.50
36990;DHT22;22898;52.102;5.776;2023-06-26T02:59:13;26.60;88.10
36990;DHT22;22898;52.102;5.776;2023-06-26T03:01:39;26.60;87.70
36990;DHT22;22898;52.102;5.776;2023-06-26T03:04:04;26.70;87.80
36990;DHT22;22898;52.102;5.776;2023-06-26T03:06:30;26.90;87.30
36990;DHT22;22898;52.102;5.776;2023-06-26T03:08:55;26.80;87.50
36990;DHT22;22898;52.102;5.776;2023-06-26T03:11:21;26.70;88.00
36990;DHT22;22898;52.102;5.776;2023-06-26T03:13:46;26.60;88.80
36990;DHT22;22898;52.102;5.776;2023-06-26T03:16:12;26.50;89.30
36990;DHT22;22898;52.102;5.776;2023-06-26T03:18:38;26.20;90.10
36990;DHT22;22898;52.102;5.776;2023-06-26T03:21:04;26.30;90.10
36990;DHT22;22898;52.102;5.776;2023-06-26T03:23:30;26.70;89.20
36990;DHT22;22898;52.102;5.776;2023-06-26T03:25:56;26.50;90.00
36990;DHT22;22898;52.102;5.776;2023-06-26T03:28:21;26.40;90.10
36990;DHT22;22898;52.102;5.776;2023-06-26T03:30:47;26.50;90.10
36990;DHT22;22898;52.102;5.776;2023-06-26T03:33:13;26.60;90.00
36990;DHT22;22898;52.102;5.776;2023-06-26T03:35:38;26.60;90.00
36990;DHT22;22898;52.102;5.776;2023-06-26T03:38:04;26.30;90.60
36990;DHT22;22898;52.102;5.776;2023-06-26T03:40:30;25.80;91.40
36990;DHT22;22898;52.102;5.776;2023-06-26T03:42:56;26.00;91.30
36990;DHT22;22898;52.102;5.776;2023-06-26T03:45:21;26.20;91.10
36990;DHT22;22898;52.102;5.776;2023-06-26T03:47:47;26.20;91.20
36990;DHT22;22898;52.102;5.776;2023-06-26T03:50:15;26.50;90.80
36990;DHT22;22898;52.102;5.776;2023-06-26T03:52:41;26.60;90.80
36990;DHT22;22898;52.102;5.776;2023-06-26T03:55:07;26.00;91.90
36990;DHT22;22898;52.102;5.776;2023-06-26T03:57:33;25.80;92.30
36990;DHT22;22898;52.102;5.776;2023-06-26T03:59:58;25.60;92.90
36990;DHT22;22898;52.102;5.776;2023-06-26T04:02:24;25.80;92.70
36990;DHT22;22898;52.102;5.776;2023-06-26T04:04:49;25.90;92.60
36990;DHT22;22898;52.102;5.776;2023-06-26T04:07:15;25.90;92.80
36990;DHT22;22898;52.102;5.776;2023-06-26T04:09:41;25.90;93.00
36990;DHT22;22898;52.102;5.776;2023-06-26T04:12:06;26.00;93.00
36990;DHT22;22898;52.102;5.776;2023-06-26T04:14:32;25.90;93.20
36990;DHT22;22898;52.102;5.776;2023-06-26T04:16:59;25.50;94.30
36990;DHT22;22898;52.102;5.776;2023-06-26T04:19:27;25.50;94.40
36990;DHT22;22898;52.102;5.776;2023-06-26T04:21:52;25.50;94.70
36990;DHT22;22898;52.102;5.776;2023-06-26T04:24:18;25.30;95.30
36990;DHT22;22898;52.102;5.776;2023-06-26T04:26:43;25.30;95.50
36990;DHT22;22898;52.102;5.776;2023-06-26T04:29:10;25.10;95.90
36990;DHT22;22898;52.102;5.776;2023-06-26T04:31:36;24.90;96.90
36990;DHT22;22898;52.102;5.776;2023-06-26T04:34:01;25.00;97.00
36990;DHT22;22898;52.102;5.776;2023-06-26T04:36:27;25.40;96.50
36990;DHT22;22898;52.102;5.776;2023-06-26T04:38:57;25.60;96.20
36990;DHT22;22898;52.102;5.776;2023-06-26T04:41:22;25.70;96.00
36990;DHT22;22898;52.102;5.776;2023-06-26T04:43:48;26.00;95.40
36990;DHT22;22898;52.102;5.776;2023-06-26T04:46:13;26.10;95.40
36990;DHT22;22898;52.102;5.776;2023-06-26T04:48:39;25.90;95.90
36990;DHT22;22898;52.102;5.776;2023-06-26T04:51:04;25.80;96.00
36990;DHT22;22898;52.102;5.776;2023-06-26T04:53:30;25.70;96.30
36990;DHT22;22898;52.102;5.776;2023-06-26T04:55:56;25.80;96.40
36990;DHT22;22898;52.102;5.776;2023-06-26T04:58:21;25.90;96.00
36990;DHT22;22898;52.102;5.776;2023-06-26T05:00:47;25.70;96.80
36990;DHT22;22898;52.102;5.776;2023-06-26T05:03:14;25.70;96.70
36990;DHT22;22898;52.102;5.776;2023-06-26T05:05:40;25.60;97.20
36990;DHT22;22898;52.102;5.776;2023-06-26T05:08:22;25.50;97.10
36990;DHT22;22898;52.102;5.776;2023-06-26T05:10:48;25.70;97.00
36990;DHT22;22898;52.102;5.776;2023-06-26T05:13:14;26.00;96.50
36990;DHT22;22898;52.102;5.776;2023-06-26T05:15:43;26.30;95.70
36990;DHT22;22898;52.102;5.776;2023-06-26T05:18:09;26.40;95.50
36990;DHT22;22898;52.102;5.776;2023-06-26T05:20:35;26.50;95.10
36990;DHT22;22898;52.102;5.776;2023-06-26T05:23:02;26.20;94.50
36990;DHT22;22898;52.102;5.776;2023-06-26T05:25:29;26.20;94.60
36990;DHT22;22898;52.102;5.776;2023-06-26T05:27:56;26.20;94.10
36990;DHT22;22898;52.102;5.776;2023-06-26T05:30:23;26.20;93.70
36990;DHT22;22898;52.102;5.776;2023-06-26T05:32:51;26.30;93.60
36990;DHT22;22898;52.102;5.776;2023-06-26T05:35:17;26.00;93.90
36990;DHT22;22898;52.102;5.776;2023-06-26T05:37:43;26.00;94.10
36990;DHT22;22898;52.102;5.776;2023-06-26T05:40:09;26.20;93.70
36990;DHT22;22898;52.102;5.776;2023-06-26T05:42:35;26.40;93.30
36990;DHT22;22898;52.102;5.776;2023-06-26T05:45:01;26.70;92.90
36990;DHT22;22898;52.102;5.776;2023-06-26T05:47:27;27.20;92.00
36990;DHT22;22898;52.102;5.776;2023-06-26T05:49:52;27.30;91.80
36990;DHT22;22898;52.102;5.776;2023-06-26T05:52:18;27.30;91.40
36990;DHT22;22898;52.102;5.776;2023-06-26T05:54:44;27.10;91.70
36990;DHT22;22898;52.102;5.776;2023-06-26T05:57:10;27.20;91.70
36990;DHT22;22898;52.102;5.776;2023-06-26T05:59:39;27.00;92.00
36990;DHT22;22898;52.102;5.776;2023-06-26T06:02:06;26.80;92.30
36990;DHT22;22898;52.102;5.776;2023-06-26T06:04:32;27.00;91.80
36990;DHT22;22898;52.102;5.776;2023-06-26T06:06:57;27.10;91.70
36990;DHT22;22898;52.102;5.776;2023-06-26T06:09:23;27.10;91.80
36990;DHT22;22898;52.102;5.776;2023-06-26T06:11:48;27.20;91.30
36990;DHT22;22898;52.102;5.776;2023-06-26T06:14:14;27.30;91.30
36990;DHT22;22898;52.102;5.776;2023-06-26T06:16:39;27.50;90.50
36990;DHT22;22898;52.102;5.776;2023-06-26T06:19:05;26.90;90.60
36990;DHT22;22898;52.102;5.776;2023-06-26T06:21:33;26.40;91.70
36990;DHT22;22898;52.102;5.776;2023-06-26T06:23:58;26.40;91.70
36990;DHT22;22898;52.102;5.776;2023-06-26T06:26:24;26.70;91.40
36990;DHT22;22898;52.102;5.776;2023-06-26T06:28:49;27.00;90.90
36990;DHT22;22898;52.102;5.776;2023-06-26T06:31:15;26.90;90.70
36990;DHT22;22898;52.102;5.776;2023-06-26T06:33:40;26.60;90.90
36990;DHT22;22898;52.102;5.776;2023-06-26T06:36:06;26.30;91.20
36990;DHT22;22898;52.102;5.776;2023-06-26T06:38:32;26.30;90.90
36990;DHT22;22898;52.102;5.776;2023-06-26T06:40:57;26.40;90.90
36990;DHT22;22898;52.102;5.776;2023-06-26T06:43:23;26.50;91.00
36990;DHT22;22898;52.102;5.776;2023-06-26T06:45:48;26.50;90.20
36990;DHT22;22898;52.102;5.776;2023-06-26T06:48:14;26.20;90.80
36990;DHT22;22898;52.102;5.776;2023-06-26T06:50:39;26.30;91.20
36990;DHT22;22898;52.102;5.776;2023-06-26T06:53:05;26.70;90.60
36990;DHT22;22898;52.102;5.776;2023-06-26T06:55:30;26.80;90.20
36990;DHT22;22898;52.102;5.776;2023-06-26T06:57:56;27.00;89.90
36990;DHT22;22898;52.102;5.776;2023-06-26T07:00:22;27.00;89.60
36990;DHT22;22898;52.102;5.776;2023-06-26T07:02:47;26.90;89.80
36990;DHT22;22898;52.102;5.776;2023-06-26T07:05:13;26.70;90.00
36990;DHT22;22898;52.102;5.776;2023-06-26T07:07:39;26.70;90.70
36990;DHT22;22898;52.102;5.776;2023-06-26T07:10:09;26.40;90.60
36990;DHT22;22898;52.102;5.776;2023-06-26T07:12:36;26.50;90.50
36990;DHT22;22898;52.102;5.776;2023-06-26T07:15:02;26.60;90.30
36990;DHT22;22898;52.102;5.776;2023-06-26T07:17:30;26.40;90.20
36990;DHT22;22898;52.102;5.776;2023-06-26T07:19:56;26.50;90.30
36990;DHT22;22898;52.102;5.776;2023-06-26T07:22:21;26.40;90.50
36990;DHT22;22898;52.102;5.776;2023-06-26T07:24:48;26.40;90.30
36990;DHT22;22898;52.102;5.776;2023-06-26T07:27:16;26.60;90.10
36990;DHT22;22898;52.102;5.776;2023-06-26T07:29:43;26.70;90.60
36990;DHT22;22898;52.102;5.776;2023-06-26T07:32:09;26.70;90.30
36990;DHT22;22898;52.102;5.776;2023-06-26T07:34:34;26.60;90.70
36990;DHT22;22898;52.102;5.776;2023-06-26T07:37:00;26.70;90.40
36990;DHT22;22898;52.102;5.776;2023-06-26T07:39:26;26.70;90.40
36990;DHT22;22898;52.102;5.776;2023-06-26T07:41:51;26.60;90.90
36990;DHT22;22898;52.102;5.776;2023-06-26T07:44:17;27.10;90.50
36990;DHT22;22898;52.102;5.776;2023-06-26T07:46:42;27.30;89.40
36990;DHT22;22898;52.102;5.776;2023-06-26T07:49:09;27.20;89.90
36990;DHT22;22898;52.102;5.776;2023-06-26T07:51:34;27.50;89.40
36990;DHT22;22898;52.102;5.776;2023-06-26T07:54:00;27.40;88.20
36990;DHT22;22898;52.102;5.776;2023-06-26T07:56:26;27.20;89.00
36990;DHT22;22898;52.102;5.776;2023-06-26T07:58:51;27.30;88.60
36990;DHT22;22898;52.102;5.776;2023-06-26T08:01:17;27.00;89.50
36990;DHT22;22898;52.102;5.776;2023-06-26T08:03:43;27.20;89.10
36990;DHT22;22898;52.102;5.776;2023-06-26T08:06:09;27.60;88.40
36990;DHT22;22898;52.102;5.776;2023-06-26T08:08:34;27.90;87.50
36990;DHT22;22898;52.102;5.776;2023-06-26T08:11:00;28.30;86.30
36990;DHT22;22898;52.102;5.776;2023-06-26T08:13:25;28.40;86.20
36990;DHT22;22898;52.102;5.776;2023-06-26T08:15:51;28.00;87.00
36990;DHT22;22898;52.102;5.776;2023-06-26T08:18:18;27.30;89.20
36990;DHT22;22898;52.102;5.776;2023-06-26T08:20:43;27.30;89.90
36990;DHT22;22898;52.102;5.776;2023-06-26T08:23:09;27.50;88.80
36990;DHT22;22898;52.102;5.776;2023-06-26T08:25:35;27.80;88.30
36990;DHT22;22898;52.102;5.776;2023-06-26T08:28:00;27.70;88.20
36990;DHT22;22898;52.102;5.776;2023-06-26T08:30:26;27.50;88.70
36990;DHT22;22898;52.102;5.776;2023-06-26T08:32:54;27.20;89.90
36990;DHT22;22898;52.102;5.776;2023-06-26T08:35:20;27.30;88.50
36990;DHT22;22898;52.102;5.776;2023-06-26T08:37:46;27.70;86.10
36990;DHT22;22898;52.102;5.776;2023-06-26T08:40:12;28.00;86.50
36990;DHT22;22898;52.102;5.776;2023-06-26T08:42:38;27.70;86.30
36990;DHT22;22898;52.102;5.776;2023-06-26T08:45:04;27.80;86.70
36990;DHT22;22898;52.102;5.776;2023-06-26T08:47:30;27.50;86.10
36990;DHT22;22898;52.102;5.776;2023-06-26T08:50:10;27.10;86.00
36990;DHT22;22898;52.102;5.776;2023-06-26T08:52:41;27.20;86.30
36990;DHT22;22898;52.102;5.776;2023-06-26T08:55:09;27.30;86.10
36990;DHT22;22898;52.102;5.776;2023-06-26T08:57:36;27.50;85.80
36990;DHT22;22898;52.102;5.776;2023-06-26T09:00:03;27.40;85.20
36990;DHT22;22898;52.102;5.776;2023-06-26T09:02:28;27.50;85.20
36990;DHT22;22898;52.102;5.776;2023-06-26T09:04:54;27.40;83.50
36990;DHT22;22898;52.102;5.776;2023-06-26T09:07:20;27.60;82.90
36990;DHT22;22898;52.102;5.776;2023-06-26T09:09:46;28.00;80.40
36990;DHT22;22898;52.102;5.776;2023-06-26T09:12:11;28.40;78.70
36990;DHT22;22898;52.102;5.776;2023-06-26T09:14:38;28.20;78.90
36990;DHT22;22898;52.102;5.776;2023-06-26T09:17:05;27.70;81.10
36990;DHT22;22898;52.102;5.776;2023-06-26T09:19:30;27.90;79.70
36990;DHT22;22898;52.102;5.776;2023-06-26T09:21:56;28.10;77.90
36990;DHT22;22898;52.102;5.776;2023-06-26T09:24:22;28.10;78.40
36990;DHT22;22898;52.102;5.776;2023-06-26T09:26:49;27.70;79.40
36990;DHT22;22898;52.102;5.776;2023-06-26T09:29:17;27.40;79.10
36990;DHT22;22898;52.102;5.776;2023-06-26T09:31:44;26.90;79.50
36990;DHT22;22898;52.102;5.776;2023-06-26T09:34:09;26.70;81.20
36990;DHT22;22898;52.102;5.776;2023-06-26T09:36:36;26.80;81.60
36990;DHT22;22898;52.102;5.776;2023-06-26T09:39:06;26.90;82.10
36990;DHT22;22898;52.102;5.776;2023-06-26T09:41:45;27.20;78.90
36990;DHT22;22898;52.102;5.776;2023-06-26T09:44:13;27.20;79.00
36990;DHT22;22898;52.102;5.776;2023-06-26T09:46:39;27.30;77.00
36990;DHT22;22898;52.102;5.776;2023-06-26T09:49:09;27.00;78.90
36990;DHT22;22898;52.102;5.776;2023-06-26T09:51:39;27.30;78.30
36990;DHT22;22898;52.102;5.776;2023-06-26T09:54:06;27.20;76.00
36990;DHT22;22898;52.102;5.776;2023-06-26T09:56:32;27.30;75.40
36990;DHT22;22898;52.102;5.776;2023-06-26T09:59:00;27.30;76.90
36990;DHT22;22898;52.102;5.776;2023-06-26T10:01:27;27.70;77.90
36990;DHT22;22898;52.102;5.776;2023-06-26T10:03:54;27.90;76.40
36990;DHT22;22898;52.102;5.776;2023-06-26T10:06:28;27.80;75.80
36990;DHT22;22898;52.102;5.776;2023-06-26T10:08:55;27.30;77.80
36990;DHT22;22898;52.102;5.776;2023-06-26T10:11:22;27.40;75.20
36990;DHT22;22898;52.102;5.776;2023-06-26T10:13:51;27.40;76.10
36990;DHT22;22898;52.102;5.776;2023-06-26T10:16:31;27.40;75.10
36990;DHT22;22898;52.102;5.776;2023-06-26T10:19:02;27.20;71.70
36990;DHT22;22898;52.102;5.776;2023-06-26T10:21:29;27.40;71.20
36990;DHT22;22898;52.102;5.776;2023-06-26T10:23:57;27.40;70.80
36990;DHT22;22898;52.102;5.776;2023-06-26T10:26:24;27.20;70.70
36990;DHT22;22898;52.102;5.776;2023-06-26T10:28:52;27.50;70.40
36990;DHT22;22898;52.102;5.776;2023-06-26T10:31:24;27.70;71.00
36990;DHT22;22898;52.102;5.776;2023-06-26T10:33:52;27.60;72.30
36990;DHT22;22898;52.102;5.776;2023-06-26T10:36:20;28.00;71.20
36990;DHT22;22898;52.102;5.776;2023-06-26T10:38:55;28.10;69.90
36990;DHT22;22898;52.102;5.776;2023-06-26T10:41:22;28.00;71.00
36990;DHT22;22898;52.102;5.776;2023-06-26T10:46:26;28.00;73.10
36990;DHT22;22898;52.102;5.776;2023-06-26T10:48:59;28.20;72.80
36990;DHT22;22898;52.102;5.776;2023-06-26T10:51:26;28.00;68.00
36990;DHT22;22898;52.102;5.776;2023-06-26T10:53:56;27.90;71.60
36990;DHT22;22898;52.102;5.776;2023-06-26T10:56:40;27.70;71.20
36990;DHT22;22898;52.102;5.776;2023-06-26T10:59:25;27.50;70.30
36990;DHT22;22898;52.102;5.776;2023-06-26T11:07:22;27.60;69.40
36990;DHT22;22898;52.102;5.776;2023-06-26T11:12:40;28.10;69.80
36990;DHT22;22898;52.102;5.776;2023-06-26T11:15:13;28.40;69.10
36990;DHT22;22898;52.102;5.776;2023-06-26T11:17:40;28.30;69.10
36990;DHT22;22898;52.102;5.776;2023-06-26T11:20:07;28.30;71.90
36990;DHT22;22898;52.102;5.776;2023-06-26T11:22:35;28.20;69.50
36990;DHT22;22898;52.102;5.776;2023-06-26T11:25:02;28.00;69.80
36990;DHT22;22898;52.102;5.776;2023-06-26T11:27:37;27.70;69.00
36990;DHT22;22898;52.102;5.776;2023-06-26T11:30:04;27.30;70.20
36990;DHT22;22898;52.102;5.776;2023-06-26T11:32:30;27.50;68.30
36990;DHT22;22898;52.102;5.776;2023-06-26T11:34:58;27.60;68.40
36990;DHT22;22898;52.102;5.776;2023-06-26T11:37:24;28.00;67.20
36990;DHT22;22898;52.102;5.776;2023-06-26T11:39:50;27.90;66.20
36990;DHT22;22898;52.102;5.776;2023-06-26T11:42:16;28.10;65.80
36990;DHT22;22898;52.102;5.776;2023-06-26T11:44:43;28.20;64.60
36990;DHT22;22898;52.102;5.776;2023-06-26T11:47:16;28.10;65.10
36990;DHT22;22898;52.102;5.776;2023-06-26T11:49:45;28.00;67.50
36990;DHT22;22898;52.102;5.776;2023-06-26T11:52:11;27.50;67.90
36990;DHT22;22898;52.102;5.776;2023-06-26T11:54:37;26.90;67.80
36990;DHT22;22898;52.102;5.776;2023-06-26T11:57:04;26.70;69.60
36990;DHT22;22898;52.102;5.776;2023-06-26T11:59:34;26.40;68.60
36990;DHT22;22898;52.102;5.776;2023-06-26T12:02:05;26.10;70.60
36990;DHT22;22898;52.102;5.776;2023-06-26T12:04:31;26.60;71.40
36990;DHT22;22898;52.102;5.776;2023-06-26T12:06:57;26.80;68.00
36990;DHT22;22898;52.102;5.776;2023-06-26T12:09:23;27.20;67.30
36990;DHT22;22898;52.102;5.776;2023-06-26T12:11:53;27.10;69.90
36990;DHT22;22898;52.102;5.776;2023-06-26T12:14:20;27.60;70.30
36990;DHT22;22898;52.102;5.776;2023-06-26T12:16:47;27.80;68.20
36990;DHT22;22898;52.102;5.776;2023-06-26T12:19:12;27.80;68.80
36990;DHT22;22898;52.102;5.776;2023-06-26T12:24:07;26.70;70.40
36990;DHT22;22898;52.102;5.776;2023-06-26T12:26:32;26.70;71.10
36990;DHT22;22898;52.102;5.776;2023-06-26T12:29:05;26.80;69.20
36990;DHT22;22898;52.102;5.776;2023-06-26T12:31:32;26.80;70.30
36990;DHT22;22898;52.102;5.776;2023-06-26T12:33:59;27.30;68.30
36990;DHT22;22898;52.102;5.776;2023-06-26T12:36:25;27.10;67.50
36990;DHT22;22898;52.102;5.776;2023-06-26T12:38:53;26.90;65.40
36990;DHT22;22898;52.102;5.776;2023-06-26T12:41:19;26.50;68.10
36990;DHT22;22898;52.102;5.776;2023-06-26T12:43:46;26.50;68.70
36990;DHT22;22898;52.102;5.776;2023-06-26T12:46:12;27.10;68.90
36990;DHT22;22898;52.102;5.776;2023-06-26T12:48:42;27.60;66.90
36990;DHT22;22898;52.102;5.776;2023-06-26T12:51:17;28.20;65.60
36990;DHT22;22898;52.102;5.776;2023-06-26T12:53:43;28.10;63.90
36990;DHT22;22898;52.102;5.776;2023-06-26T12:56:09;27.50;66.10
36990;DHT22;22898;52.102;5.776;2023-06-26T12:58:37;27.30;65.90
36990;DHT22;22898;52.102;5.776;2023-06-26T13:01:05;27.60;67.10
36990;DHT22;22898;52.102;5.776;2023-06-26T13:03:32;27.80;64.70
36990;DHT22;22898;52.102;5.776;2023-06-26T13:05:58;27.80;64.10
36990;DHT22;22898;52.102;5.776;2023-06-26T13:08:24;27.40;64.10
36990;DHT22;22898;52.102;5.776;2023-06-26T13:10:49;27.10;67.70
36990;DHT22;22898;52.102;5.776;2023-06-26T13:13:15;26.80;67.20
36990;DHT22;22898;52.102;5.776;2023-06-26T13:15:40;26.50;66.30
36990;DHT22;22898;52.102;5.776;2023-06-26T13:18:06;26.30;67.30
36990;DHT22;22898;52.102;5.776;2023-06-26T13:20:31;26.30;67.60
36990;DHT22;22898;52.102;5.776;2023-06-26T13:22:57;26.60;67.20
36990;DHT22;22898;52.102;5.776;2023-06-26T13:25:23;26.70;65.80
36990;DHT22;22898;52.102;5.776;2023-06-26T13:27:48;26.80;65.10
36990;DHT22;22898;52.102;5.776;2023-06-26T13:30:15;27.40;66.10
36990;DHT22;22898;52.102;5.776;2023-06-26T13:32:41;27.60;64.50
36990;DHT22;22898;52.102;5.776;2023-06-26T13:35:07;27.60;63.20
36990;DHT22;22898;52.102;5.776;2023-06-26T13:37:33;27.50;63.10
36990;DHT22;22898;52.102;5.776;2023-06-26T13:40:00;27.80;63.50
36990;DHT22;22898;52.102;5.776;2023-06-26T13:42:27;27.90;62.30
36990;DHT22;22898;52.102;5.776;2023-06-26T13:44:53;27.80;62.90
36990;DHT22;22898;52.102;5.776;2023-06-26T13:47:18;27.70;62.40
36990;DHT22;22898;52.102;5.776;2023-06-26T13:49:44;27.70;62.90
36990;DHT22;22898;52.102;5.776;2023-06-26T13:52:09;27.40;63.40
36990;DHT22;22898;52.102;5.776;2023-06-26T13:54:36;27.30;63.90
36990;DHT22;22898;52.102;5.776;2023-06-26T13:57:05;27.30;62.80
36990;DHT22;22898;52.102;5.776;2023-06-26T13:59:31;27.20;64.40
36990;DHT22;22898;52.102;5.776;2023-06-26T14:01:56;27.00;65.20
36990;DHT22;22898;52.102;5.776;2023-06-26T14:04:22;26.70;65.80
36990;DHT22;22898;52.102;5.776;2023-06-26T14:06:48;26.90;65.50
36990;DHT22;22898;52.102;5.776;2023-06-26T14:09:13;27.20;63.80
36990;DHT22;22898;52.102;5.776;2023-06-26T14:11:39;27.60;63.70
36990;DHT22;22898;52.102;5.776;2023-06-26T14:14:05;28.00;64.10
36990;DHT22;22898;52.102;5.776;2023-06-26T14:16:30;28.20;64.40
36990;DHT22;22898;52.102;5.776;2023-06-26T14:18:57;27.90;65.30
36990;DHT22;22898;52.102;5.776;2023-06-26T14:21:22;27.40;66.50
36990;DHT22;22898;52.102;5.776;2023-06-26T14:23:48;27.00;66.30
36990;DHT22;22898;52.102;5.776;2023-06-26T14:26:14;26.60;67.20
36990;DHT22;22898;52.102;5.776;2023-06-26T14:28:39;26.40;67.30
36990;DHT22;22898;52.102;5.776;2023-06-26T14:31:05;26.70;66.40
36990;DHT22;22898;52.102;5.776;2023-06-26T14:33:31;26.40;67.50
36990;DHT22;22898;52.102;5.776;2023-06-26T14:35:56;26.00;69.20
36990;DHT22;22898;52.102;5.776;2023-06-26T14:38:22;26.30;68.70
36990;DHT22;22898;52.102;5.776;2023-06-26T14:40:47;26.70;67.90
36990;DHT22;22898;52.102;5.776;2023-06-26T14:43:13;27.10;67.20
36990;DHT22;22898;52.102;5.776;2023-06-26T14:45:39;27.20;66.60
36990;DHT22;22898;52.102;5.776;2023-06-26T14:48:04;27.50;66.10
36990;DHT22;22898;52.102;5.776;2023-06-26T14:50:30;27.50;66.10
36990;DHT22;22898;52.102;5.776;2023-06-26T14:52:55;27.40;67.20
36990;DHT22;22898;52.102;5.776;2023-06-26T14:55:21;27.20;67.20
36990;DHT22;22898;52.102;5.776;2023-06-26T14:57:47;27.30;66.60
36990;DHT22;22898;52.102;5.776;2023-06-26T15:00:12;27.20;65.90
36990;DHT22;22898;52.102;5.776;2023-06-26T15:02:38;26.80;66.20
36990;DHT22;22898;52.102;5.776;2023-06-26T15:05:04;26.50;67.10
36990;DHT22;22898;52.102;5.776;2023-06-26T15:07:30;26.60;66.20
36990;DHT22;22898;52.102;5.776;2023-06-26T15:09:56;26.50;67.50
36990;DHT22;22898;52.102;5.776;2023-06-26T15:12:22;26.30;67.80
36990;DHT22;22898;52.102;5.776;2023-06-26T15:14:48;26.20;68.00
36990;DHT22;22898;52.102;5.776;2023-06-26T15:17:14;26.20;67.00
36990;DHT22;22898;52.102;5.776;2023-06-26T15:19:40;25.80;68.60
36990;DHT22;22898;52.102;5.776;2023-06-26T15:22:06;26.50;67.90
36990;DHT22;22898;52.102;5.776;2023-06-26T15:24:32;26.80;66.90
36990;DHT22;22898;52.102;5.776;2023-06-26T15:26:57;27.20;65.40
36990;DHT22;22898;52.102;5.776;2023-06-26T15:29:23;27.50;64.50
36990;DHT22;22898;52.102;5.776;2023-06-26T15:31:48;27.40;65.00
36990;DHT22;22898;52.102;5.776;2023-06-26T15:34:14;26.90;66.80
36990;DHT22;22898;52.102;5.776;2023-06-26T15:36:40;26.80;67.50
36990;DHT22;22898;52.102;5.776;2023-06-26T15:39:05;26.90;67.70
36990;DHT22;22898;52.102;5.776;2023-06-26T15:41:31;27.20;66.60
36990;DHT22;22898;52.102;5.776;2023-06-26T15:43:56;27.60;64.80